sensor_id;sensor_type;location;lat;lon;timestamp;P1;durP1;ratioP1;P2;durP2;ratioP2
51921;SDS011;37948;53.260;6.394;2022-11-11T00:00:28;15.38;;;6.03;;
51921;SDS011;37948;53.260;6.394;2022-11-11T00:02:54;9.80;;;6.22;;
51921;SDS011;37948;53.260;6.394;2022-11-11T00:05:21;11.07;;;5.13;;
51921;SDS011;37948;53.260;6.394;2022-11-11T00:07:46;17.00;;;6.43;;
51921;SDS011;37948;53.260;6.394;2022-11-11T00:10:13;16.80;;;6.45;;
51921;SDS011;37948;53.260;6.394;2022-11-11T00:12:38;9.77;;;5.97;;
51921;SDS011;37948;53.260;6.394;2022-11-11T00:15:04;15.18;;;6.60;;
51921;SDS011;37948;53.260;6.394;2022-11-11T00:17:31;18.58;;;7.57;;
51921;SDS011;37948;53.260;6.394;2022-11-11T00:20:16;17.35;;;6.13;;
51921;SDS011;37948;53.260;6.394;2022-11-11T00:23:01;12.70;;;6.00;;
51921;SDS011;37948;53.260;6.394;2022-11-11T00:25:46;14.50;;;6.65;;
51921;SDS011;37948;53.260;6.394;2022-11-11T00:28:15;10.75;;;6.18;;
51921;SDS011;37948;53.260;6.394;2022-11-11T00:30:41;13.38;;;6.80;;
51921;SDS011;37948;53.260;6.394;2022-11-11T00:33:07;13.02;;;7.50;;
51921;SDS011;37948;53.260;6.394;2022-11-11T00:35:32;19.67;;;7.13;;
51921;SDS011;37948;53.260;6.394;2022-11-11T00:38:16;19.80;;;7.10;;
51921;SDS011;37948;53.260;6.394;2022-11-11T00:41:01;14.90;;;7.15;;
51921;SDS011;37948;53.260;6.394;2022-11-11T00:43:26;15.20;;;7.70;;
51921;SDS011;37948;53.260;6.394;2022-11-11T00:45:52;11.65;;;6.82;;
51921;SDS011;37948;53.260;6.394;2022-11-11T00:48:17;12.15;;;6.57;;
51921;SDS011;37948;53.260;6.394;2022-11-11T00:51:02;23.95;;;8.35;;
51921;SDS011;37948;53.260;6.394;2022-11-11T00:53:29;17.83;;;7.20;;
51921;SDS011;37948;53.260;6.394;2022-11-11T00:56:00;14.33;;;7.23;;
51921;SDS011;37948;53.260;6.394;2022-11-11T00:58:26;18.48;;;7.97;;
51921;SDS011;37948;53.260;6.394;2022-11-11T01:00:52;15.73;;;7.63;;
51921;SDS011;37948;53.260;6.394;2022-11-11T01:03:18;14.02;;;7.13;;
51921;SDS011;37948;53.260;6.394;2022-11-11T01:05:44;21.55;;;8.85;;
51921;SDS011;37948;53.260;6.394;2022-11-11T01:08:10;14.98;;;6.78;;
51921;SDS011;37948;53.260;6.394;2022-11-11T01:10:36;14.32;;;7.47;;
51921;SDS011;37948;53.260;6.394;2022-11-11T01:13:02;18.08;;;8.13;;
51921;SDS011;37948;53.260;6.394;2022-11-11T01:15:38;11.98;;;7.68;;
51921;SDS011;37948;53.260;6.394;2022-11-11T01:18:04;19.50;;;7.50;;
51921;SDS011;37948;53.260;6.394;2022-11-11T01:20:30;17.20;;;7.78;;
51921;SDS011;37948;53.260;6.394;2022-11-11T01:22:56;13.18;;;7.75;;
51921;SDS011;37948;53.260;6.394;2022-11-11T01:25:22;14.98;;;7.47;;
51921;SDS011;37948;53.260;6.394;2022-11-11T01:27:47;14.85;;;8.05;;
51921;SDS011;37948;53.260;6.394;2022-11-11T01:30:13;16.98;;;7.57;;
51921;SDS011;37948;53.260;6.394;2022-11-11T01:32:39;13.68;;;8.93;;
51921;SDS011;37948;53.260;6.394;2022-11-11T01:35:05;16.20;;;7.88;;
51921;SDS011;37948;53.260;6.394;2022-11-11T01:37:34;18.52;;;7.70;;
51921;SDS011;37948;53.260;6.394;2022-11-11T01:40:00;16.10;;;7.40;;
51921;SDS011;37948;53.260;6.394;2022-11-11T01:42:26;12.15;;;7.32;;
51921;SDS011;37948;53.260;6.394;2022-11-11T01:44:51;16.00;;;7.10;;
51921;SDS011;37948;53.260;6.394;2022-11-11T01:47:17;15.18;;;7.28;;
51921;SDS011;37948;53.260;6.394;2022-11-11T01:49:48;14.90;;;7.50;;
51921;SDS011;37948;53.260;6.394;2022-11-11T01:52:25;18.40;;;7.40;;
51921;SDS011;37948;53.260;6.394;2022-11-11T01:54:55;16.95;;;8.38;;
51921;SDS011;37948;53.260;6.394;2022-11-11T01:57:31;14.30;;;7.35;;
51921;SDS011;37948;53.260;6.394;2022-11-11T02:00:04;14.68;;;7.45;;
51921;SDS011;37948;53.260;6.394;2022-11-11T02:05:22;13.88;;;6.53;;
51921;SDS011;37948;53.260;6.394;2022-11-11T02:08:17;16.50;;;7.75;;
51921;SDS011;37948;53.260;6.394;2022-11-11T02:16:44;16.25;;;7.32;;
51921;SDS011;37948;53.260;6.394;2022-11-11T02:19:10;12.80;;;7.47;;
51921;SDS011;37948;53.260;6.394;2022-11-11T02:21:41;16.83;;;6.72;;
51921;SDS011;37948;53.260;6.394;2022-11-11T02:24:16;23.45;;;8.15;;
51921;SDS011;37948;53.260;6.394;2022-11-11T02:26:43;15.15;;;7.40;;
51921;SDS011;37948;53.260;6.394;2022-11-11T02:29:12;17.05;;;7.95;;
51921;SDS011;37948;53.260;6.394;2022-11-11T02:31:41;15.10;;;7.57;;
51921;SDS011;37948;53.260;6.394;2022-11-11T02:34:07;17.35;;;8.35;;
51921;SDS011;37948;53.260;6.394;2022-11-11T02:36:33;14.55;;;8.35;;
51921;SDS011;37948;53.260;6.394;2022-11-11T02:38:59;14.60;;;7.10;;
51921;SDS011;37948;53.260;6.394;2022-11-11T02:41:24;15.07;;;7.53;;
51921;SDS011;37948;53.260;6.394;2022-11-11T02:44:09;16.83;;;7.50;;
51921;SDS011;37948;53.260;6.394;2022-11-11T02:46:34;11.27;;;8.10;;
51921;SDS011;37948;53.260;6.394;2022-11-11T02:49:00;21.67;;;8.90;;
51921;SDS011;37948;53.260;6.394;2022-11-11T02:51:25;20.00;;;8.70;;
51921;SDS011;37948;53.260;6.394;2022-11-11T02:53:51;11.18;;;7.38;;
51921;SDS011;37948;53.260;6.394;2022-11-11T02:56:16;13.80;;;8.02;;
51921;SDS011;37948;53.260;6.394;2022-11-11T02:59:02;13.73;;;8.63;;
51921;SDS011;37948;53.260;6.394;2022-11-11T03:01:27;14.07;;;8.93;;
51921;SDS011;37948;53.260;6.394;2022-11-11T03:03:53;17.10;;;9.20;;
51921;SDS011;37948;53.260;6.394;2022-11-11T03:06:18;17.83;;;10.27;;
51921;SDS011;37948;53.260;6.394;2022-11-11T03:08:44;19.58;;;9.80;;
51921;SDS011;37948;53.260;6.394;2022-11-11T03:11:09;13.70;;;9.35;;
51921;SDS011;37948;53.260;6.394;2022-11-11T03:13:35;17.25;;;10.05;;
51921;SDS011;37948;53.260;6.394;2022-11-11T03:16:00;19.45;;;10.23;;
51921;SDS011;37948;53.260;6.394;2022-11-11T03:18:26;18.60;;;10.82;;
51921;SDS011;37948;53.260;6.394;2022-11-11T03:20:51;21.00;;;10.82;;
51921;SDS011;37948;53.260;6.394;2022-11-11T03:38:20;24.35;;;13.02;;
51921;SDS011;37948;53.260;6.394;2022-11-11T03:40:55;17.73;;;11.77;;
51921;SDS011;37948;53.260;6.394;2022-11-11T03:43:23;18.38;;;12.50;;
51921;SDS011;37948;53.260;6.394;2022-11-11T03:45:50;23.60;;;13.45;;
51921;SDS011;37948;53.260;6.394;2022-11-11T03:48:17;21.50;;;12.02;;
51921;SDS011;37948;53.260;6.394;2022-11-11T03:50:42;23.27;;;14.00;;
51921;SDS011;37948;53.260;6.394;2022-11-11T03:53:08;26.23;;;14.45;;
51921;SDS011;37948;53.260;6.394;2022-11-11T03:55:34;21.13;;;14.00;;
51921;SDS011;37948;53.260;6.394;2022-11-11T03:58:00;21.98;;;14.20;;
51921;SDS011;37948;53.260;6.394;2022-11-11T04:00:26;22.75;;;13.48;;
51921;SDS011;37948;53.260;6.394;2022-11-11T04:03:12;21.58;;;12.82;;
51921;SDS011;37948;53.260;6.394;2022-11-11T04:05:58;24.55;;;13.90;;
51921;SDS011;37948;53.260;6.394;2022-11-11T04:08:42;24.45;;;13.02;;
51921;SDS011;37948;53.260;6.394;2022-11-11T04:11:37;25.25;;;14.40;;
51921;SDS011;37948;53.260;6.394;2022-11-11T04:14:09;25.40;;;13.88;;
51921;SDS011;37948;53.260;6.394;2022-11-11T04:16:54;25.67;;;15.02;;
51921;SDS011;37948;53.260;6.394;2022-11-11T04:19:20;23.60;;;14.65;;
51921;SDS011;37948;53.260;6.394;2022-11-11T04:22:05;25.38;;;15.13;;
51921;SDS011;37948;53.260;6.394;2022-11-11T04:24:30;23.85;;;15.27;;
51921;SDS011;37948;53.260;6.394;2022-11-11T04:27:15;22.73;;;15.18;;
51921;SDS011;37948;53.260;6.394;2022-11-11T04:29:42;26.58;;;15.40;;
51921;SDS011;37948;53.260;6.394;2022-11-11T04:32:08;21.60;;;14.80;;
51921;SDS011;37948;53.260;6.394;2022-11-11T04:34:55;24.25;;;15.80;;
51921;SDS011;37948;53.260;6.394;2022-11-11T04:37:22;33.55;;;16.67;;
51921;SDS011;37948;53.260;6.394;2022-11-11T04:39:49;22.77;;;15.00;;
51921;SDS011;37948;53.260;6.394;2022-11-11T04:42:34;23.77;;;15.40;;
51921;SDS011;37948;53.260;6.394;2022-11-11T04:45:00;27.90;;;14.52;;
51921;SDS011;37948;53.260;6.394;2022-11-11T04:47:58;25.17;;;14.98;;
51921;SDS011;37948;53.260;6.394;2022-11-11T04:50:26;33.17;;;17.40;;
51921;SDS011;37948;53.260;6.394;2022-11-11T04:52:54;22.20;;;15.07;;
51921;SDS011;37948;53.260;6.394;2022-11-11T04:55:20;22.55;;;15.75;;
51921;SDS011;37948;53.260;6.394;2022-11-11T04:58:04;29.70;;;17.45;;
51921;SDS011;37948;53.260;6.394;2022-11-11T05:00:30;25.05;;;15.35;;
51921;SDS011;37948;53.260;6.394;2022-11-11T05:02:56;26.58;;;16.15;;
51921;SDS011;37948;53.260;6.394;2022-11-11T05:08:33;22.40;;;16.35;;
51921;SDS011;37948;53.260;6.394;2022-11-11T05:11:19;23.23;;;16.55;;
51921;SDS011;37948;53.260;6.394;2022-11-11T05:13:47;27.08;;;16.80;;
51921;SDS011;37948;53.260;6.394;2022-11-11T05:16:38;25.00;;;17.63;;
51921;SDS011;37948;53.260;6.394;2022-11-11T05:19:24;25.67;;;18.08;;
51921;SDS011;37948;53.260;6.394;2022-11-11T05:24:37;36.75;;;19.05;;
51921;SDS011;37948;53.260;6.394;2022-11-11T05:27:21;27.13;;;17.30;;
51921;SDS011;37948;53.260;6.394;2022-11-11T05:29:47;33.88;;;18.13;;
51921;SDS011;37948;53.260;6.394;2022-11-11T05:32:16;26.42;;;16.60;;
51921;SDS011;37948;53.260;6.394;2022-11-11T05:34:43;27.88;;;17.65;;
51921;SDS011;37948;53.260;6.394;2022-11-11T05:37:08;27.05;;;17.73;;
51921;SDS011;37948;53.260;6.394;2022-11-11T05:39:34;28.83;;;17.58;;
51921;SDS011;37948;53.260;6.394;2022-11-11T05:42:00;31.38;;;18.58;;
51921;SDS011;37948;53.260;6.394;2022-11-11T05:44:25;26.88;;;18.30;;
51921;SDS011;37948;53.260;6.394;2022-11-11T05:46:51;28.73;;;18.13;;
51921;SDS011;37948;53.260;6.394;2022-11-11T05:49:16;29.35;;;19.33;;
51921;SDS011;37948;53.260;6.394;2022-11-11T05:51:42;29.55;;;18.42;;
51921;SDS011;37948;53.260;6.394;2022-11-11T05:54:09;29.17;;;17.55;;
51921;SDS011;37948;53.260;6.394;2022-11-11T05:56:34;28.45;;;17.52;;
51921;SDS011;37948;53.260;6.394;2022-11-11T05:59:00;22.70;;;16.52;;
51921;SDS011;37948;53.260;6.394;2022-11-11T06:01:26;27.85;;;18.52;;
51921;SDS011;37948;53.260;6.394;2022-11-11T06:03:51;29.50;;;18.13;;
51921;SDS011;37948;53.260;6.394;2022-11-11T06:06:17;29.45;;;17.55;;
51921;SDS011;37948;53.260;6.394;2022-11-11T06:08:43;28.90;;;17.88;;
51921;SDS011;37948;53.260;6.394;2022-11-11T06:11:08;28.77;;;18.15;;
51921;SDS011;37948;53.260;6.394;2022-11-11T06:13:34;32.60;;;19.13;;
51921;SDS011;37948;53.260;6.394;2022-11-11T06:16:00;35.42;;;17.85;;
51921;SDS011;37948;53.260;6.394;2022-11-11T06:18:26;32.50;;;18.88;;
51921;SDS011;37948;53.260;6.394;2022-11-11T06:20:52;27.73;;;17.85;;
51921;SDS011;37948;53.260;6.394;2022-11-11T06:23:18;25.83;;;18.52;;
51921;SDS011;37948;53.260;6.394;2022-11-11T06:25:44;34.92;;;19.00;;
51921;SDS011;37948;53.260;6.394;2022-11-11T06:28:28;28.58;;;18.88;;
51921;SDS011;37948;53.260;6.394;2022-11-11T06:30:54;24.65;;;17.42;;
51921;SDS011;37948;53.260;6.394;2022-11-11T06:33:19;33.42;;;18.83;;
51921;SDS011;37948;53.260;6.394;2022-11-11T06:35:46;29.58;;;17.80;;
51921;SDS011;37948;53.260;6.394;2022-11-11T06:38:12;29.27;;;16.88;;
51921;SDS011;37948;53.260;6.394;2022-11-11T06:40:38;26.75;;;17.60;;
51921;SDS011;37948;53.260;6.394;2022-11-11T06:43:05;28.08;;;17.17;;
51921;SDS011;37948;53.260;6.394;2022-11-11T06:45:31;26.95;;;17.67;;
51921;SDS011;37948;53.260;6.394;2022-11-11T06:47:58;30.40;;;17.35;;
51921;SDS011;37948;53.260;6.394;2022-11-11T06:50:24;28.50;;;18.00;;
51921;SDS011;37948;53.260;6.394;2022-11-11T06:52:50;30.38;;;18.85;;
51921;SDS011;37948;53.260;6.394;2022-11-11T06:55:16;32.83;;;18.50;;
51921;SDS011;37948;53.260;6.394;2022-11-11T06:57:42;30.17;;;17.88;;
51921;SDS011;37948;53.260;6.394;2022-11-11T07:00:08;31.67;;;18.80;;
51921;SDS011;37948;53.260;6.394;2022-11-11T07:02:34;30.00;;;18.52;;
51921;SDS011;37948;53.260;6.394;2022-11-11T07:05:00;29.67;;;18.27;;
51921;SDS011;37948;53.260;6.394;2022-11-11T07:07:26;27.00;;;18.65;;
51921;SDS011;37948;53.260;6.394;2022-11-11T07:09:52;29.52;;;18.27;;
51921;SDS011;37948;53.260;6.394;2022-11-11T07:12:19;30.25;;;19.02;;
51921;SDS011;37948;53.260;6.394;2022-11-11T07:14:45;25.42;;;18.15;;
51921;SDS011;37948;53.260;6.394;2022-11-11T07:17:11;28.25;;;19.63;;
51921;SDS011;37948;53.260;6.394;2022-11-11T07:19:37;32.05;;;19.25;;
51921;SDS011;37948;53.260;6.394;2022-11-11T07:22:02;35.63;;;20.15;;
51921;SDS011;37948;53.260;6.394;2022-11-11T07:24:28;32.70;;;19.67;;
51921;SDS011;37948;53.260;6.394;2022-11-11T07:26:53;27.58;;;19.60;;
51921;SDS011;37948;53.260;6.394;2022-11-11T07:29:19;28.02;;;19.88;;
51921;SDS011;37948;53.260;6.394;2022-11-11T07:31:44;28.77;;;19.70;;
51921;SDS011;37948;53.260;6.394;2022-11-11T07:34:10;28.88;;;18.58;;
51921;SDS011;37948;53.260;6.394;2022-11-11T07:36:36;30.67;;;18.45;;
51921;SDS011;37948;53.260;6.394;2022-11-11T07:39:01;31.63;;;18.88;;
51921;SDS011;37948;53.260;6.394;2022-11-11T07:41:27;31.88;;;18.77;;
51921;SDS011;37948;53.260;6.394;2022-11-11T07:43:52;27.85;;;19.20;;
51921;SDS011;37948;53.260;6.394;2022-11-11T07:46:18;31.40;;;20.08;;
51921;SDS011;37948;53.260;6.394;2022-11-11T07:48:43;33.83;;;19.45;;
51921;SDS011;37948;53.260;6.394;2022-11-11T07:51:09;30.20;;;20.10;;
51921;SDS011;37948;53.260;6.394;2022-11-11T07:53:35;30.80;;;19.63;;
51921;SDS011;37948;53.260;6.394;2022-11-11T07:56:00;33.45;;;20.70;;
51921;SDS011;37948;53.260;6.394;2022-11-11T07:58:26;31.25;;;19.27;;
51921;SDS011;37948;53.260;6.394;2022-11-11T08:00:51;32.95;;;20.15;;
51921;SDS011;37948;53.260;6.394;2022-11-11T08:03:17;29.67;;;19.63;;
51921;SDS011;37948;53.260;6.394;2022-11-11T08:05:42;31.48;;;18.77;;
51921;SDS011;37948;53.260;6.394;2022-11-11T08:08:08;34.20;;;19.38;;
51921;SDS011;37948;53.260;6.394;2022-11-11T08:10:34;35.33;;;19.80;;
51921;SDS011;37948;53.260;6.394;2022-11-11T08:13:00;29.98;;;20.38;;
51921;SDS011;37948;53.260;6.394;2022-11-11T08:15:45;33.60;;;19.75;;
51921;SDS011;37948;53.260;6.394;2022-11-11T08:18:10;32.83;;;20.23;;
51921;SDS011;37948;53.260;6.394;2022-11-11T08:20:36;35.63;;;19.40;;
51921;SDS011;37948;53.260;6.394;2022-11-11T08:23:02;30.10;;;20.27;;
51921;SDS011;37948;53.260;6.394;2022-11-11T08:25:34;28.70;;;19.40;;
51921;SDS011;37948;53.260;6.394;2022-11-11T08:28:02;32.45;;;19.08;;
51921;SDS011;37948;53.260;6.394;2022-11-11T08:30:29;28.65;;;19.70;;
51921;SDS011;37948;53.260;6.394;2022-11-11T08:32:59;31.13;;;20.27;;
51921;SDS011;37948;53.260;6.394;2022-11-11T08:35:27;25.70;;;18.98;;
51921;SDS011;37948;53.260;6.394;2022-11-11T08:37:53;38.42;;;19.92;;
51921;SDS011;37948;53.260;6.394;2022-11-11T08:40:20;28.48;;;18.95;;
51921;SDS011;37948;53.260;6.394;2022-11-11T08:42:46;29.33;;;20.38;;
51921;SDS011;37948;53.260;6.394;2022-11-11T08:45:12;35.72;;;20.30;;
51921;SDS011;37948;53.260;6.394;2022-11-11T08:47:38;29.48;;;19.15;;
51921;SDS011;37948;53.260;6.394;2022-11-11T08:50:04;29.08;;;19.60;;
51921;SDS011;37948;53.260;6.394;2022-11-11T08:52:31;28.20;;;18.23;;
51921;SDS011;37948;53.260;6.394;2022-11-11T08:54:57;31.90;;;20.05;;
51921;SDS011;37948;53.260;6.394;2022-11-11T08:57:25;30.20;;;20.20;;
51921;SDS011;37948;53.260;6.394;2022-11-11T08:59:51;29.40;;;20.40;;
51921;SDS011;37948;53.260;6.394;2022-11-11T09:02:16;32.65;;;18.73;;
51921;SDS011;37948;53.260;6.394;2022-11-11T09:04:42;33.90;;;19.65;;
51921;SDS011;37948;53.260;6.394;2022-11-11T09:07:08;28.70;;;20.13;;
51921;SDS011;37948;53.260;6.394;2022-11-11T09:09:35;32.97;;;19.85;;
51921;SDS011;37948;53.260;6.394;2022-11-11T09:12:00;32.80;;;21.52;;
51921;SDS011;37948;53.260;6.394;2022-11-11T09:14:26;37.65;;;20.83;;
51921;SDS011;37948;53.260;6.394;2022-11-11T09:16:52;38.50;;;22.38;;
51921;SDS011;37948;53.260;6.394;2022-11-11T09:19:18;30.67;;;21.10;;
51921;SDS011;37948;53.260;6.394;2022-11-11T09:21:44;29.63;;;19.42;;
51921;SDS011;37948;53.260;6.394;2022-11-11T09:24:09;32.17;;;20.77;;
51921;SDS011;37948;53.260;6.394;2022-11-11T09:26:35;34.45;;;22.00;;
51921;SDS011;37948;53.260;6.394;2022-11-11T09:29:00;30.85;;;19.85;;
51921;SDS011;37948;53.260;6.394;2022-11-11T09:31:26;30.25;;;19.60;;
51921;SDS011;37948;53.260;6.394;2022-11-11T09:33:51;36.67;;;20.35;;
51921;SDS011;37948;53.260;6.394;2022-11-11T09:36:17;34.42;;;19.75;;
51921;SDS011;37948;53.260;6.394;2022-11-11T09:38:43;34.72;;;20.63;;
51921;SDS011;37948;53.260;6.394;2022-11-11T09:41:31;33.83;;;21.52;;
51921;SDS011;37948;53.260;6.394;2022-11-11T09:44:12;38.35;;;20.50;;
51921;SDS011;37948;53.260;6.394;2022-11-11T09:47:03;31.48;;;19.90;;
51921;SDS011;37948;53.260;6.394;2022-11-11T09:49:53;26.25;;;19.27;;
51921;SDS011;37948;53.260;6.394;2022-11-11T09:52:53;36.92;;;20.65;;
51921;SDS011;37948;53.260;6.394;2022-11-11T09:55:26;30.02;;;20.48;;
51921;SDS011;37948;53.260;6.394;2022-11-11T10:00:27;29.58;;;17.42;;
51921;SDS011;37948;53.260;6.394;2022-11-11T10:03:11;27.67;;;18.83;;
51921;SDS011;37948;53.260;6.394;2022-11-11T10:05:47;35.42;;;19.27;;
51921;SDS011;37948;53.260;6.394;2022-11-11T10:08:33;30.73;;;18.30;;
51921;SDS011;37948;53.260;6.394;2022-11-11T10:11:15;33.30;;;19.45;;
51921;SDS011;37948;53.260;6.394;2022-11-11T10:13:46;31.88;;;18.00;;
51921;SDS011;37948;53.260;6.394;2022-11-11T10:16:15;34.53;;;19.95;;
51921;SDS011;37948;53.260;6.394;2022-11-11T10:18:52;30.40;;;20.15;;
51921;SDS011;37948;53.260;6.394;2022-11-11T10:21:49;30.63;;;19.35;;
51921;SDS011;37948;53.260;6.394;2022-11-11T10:24:20;29.58;;;19.45;;
51921;SDS011;37948;53.260;6.394;2022-11-11T10:26:52;28.08;;;18.95;;
51921;SDS011;37948;53.260;6.394;2022-11-11T10:29:19;28.65;;;18.98;;
51921;SDS011;37948;53.260;6.394;2022-11-11T10:31:57;27.23;;;17.40;;
51921;SDS011;37948;53.260;6.394;2022-11-11T10:34:29;31.33;;;18.02;;
51921;SDS011;37948;53.260;6.394;2022-11-11T10:36:57;32.03;;;18.27;;
51921;SDS011;37948;53.260;6.394;2022-11-11T10:42:19;28.45;;;17.80;;
51921;SDS011;37948;53.260;6.394;2022-11-11T10:44:44;30.02;;;17.73;;
51921;SDS011;37948;53.260;6.394;2022-11-11T10:47:19;30.50;;;17.67;;
51921;SDS011;37948;53.260;6.394;2022-11-11T10:52:37;24.45;;;17.20;;
51921;SDS011;37948;53.260;6.394;2022-11-11T10:55:15;28.52;;;18.27;;
51921;SDS011;37948;53.260;6.394;2022-11-11T10:58:36;27.45;;;16.88;;
51921;SDS011;37948;53.260;6.394;2022-11-11T11:00:45;29.05;;;17.48;;
51921;SDS011;37948;53.260;6.394;2022-11-11T11:03:15;23.70;;;16.92;;
51921;SDS011;37948;53.260;6.394;2022-11-11T11:05:54;23.60;;;16.90;;
51921;SDS011;37948;53.260;6.394;2022-11-11T11:11:42;27.65;;;17.38;;
51921;SDS011;37948;53.260;6.394;2022-11-11T11:14:21;24.77;;;17.00;;
51921;SDS011;37948;53.260;6.394;2022-11-11T11:16:53;26.45;;;16.60;;
51921;SDS011;37948;53.260;6.394;2022-11-11T11:19:25;26.63;;;16.33;;
51921;SDS011;37948;53.260;6.394;2022-11-11T11:21:59;22.88;;;16.00;;
51921;SDS011;37948;53.260;6.394;2022-11-11T11:27:00;24.70;;;16.33;;
51921;SDS011;37948;53.260;6.394;2022-11-11T11:29:28;27.38;;;17.75;;
51921;SDS011;37948;53.260;6.394;2022-11-11T11:34:51;20.97;;;15.43;;
51921;SDS011;37948;53.260;6.394;2022-11-11T11:37:20;25.55;;;15.90;;
51921;SDS011;37948;53.260;6.394;2022-11-11T11:39:59;23.70;;;15.40;;
51921;SDS011;37948;53.260;6.394;2022-11-11T11:44:56;22.73;;;15.55;;
51921;SDS011;37948;53.260;6.394;2022-11-11T11:47:41;23.30;;;15.65;;
51921;SDS011;37948;53.260;6.394;2022-11-11T11:50:23;23.97;;;15.77;;
51921;SDS011;37948;53.260;6.394;2022-11-11T11:58:52;22.17;;;13.85;;
51921;SDS011;37948;53.260;6.394;2022-11-11T12:06:57;23.67;;;15.45;;
51921;SDS011;37948;53.260;6.394;2022-11-11T12:12:39;18.92;;;14.55;;
51921;SDS011;37948;53.260;6.394;2022-11-11T12:15:18;17.67;;;14.00;;
51921;SDS011;37948;53.260;6.394;2022-11-11T12:17:59;18.48;;;13.57;;
51921;SDS011;37948;53.260;6.394;2022-11-11T12:21:07;24.88;;;16.40;;
51921;SDS011;37948;53.260;6.394;2022-11-11T12:29:20;25.58;;;16.23;;
51921;SDS011;37948;53.260;6.394;2022-11-11T12:32:15;20.58;;;14.82;;
51921;SDS011;37948;53.260;6.394;2022-11-11T12:37:41;19.02;;;14.10;;
51921;SDS011;37948;53.260;6.394;2022-11-11T12:43:11;22.50;;;14.27;;
51921;SDS011;37948;53.260;6.394;2022-11-11T12:53:39;28.80;;;16.23;;
51921;SDS011;37948;53.260;6.394;2022-11-11T12:59:13;23.13;;;15.48;;
51921;SDS011;37948;53.260;6.394;2022-11-11T13:02:35;23.73;;;15.43;;
51921;SDS011;37948;53.260;6.394;2022-11-11T13:04:54;25.75;;;16.60;;
51921;SDS011;37948;53.260;6.394;2022-11-11T13:12:48;21.77;;;15.70;;
51921;SDS011;37948;53.260;6.394;2022-11-11T13:15:23;21.83;;;15.35;;
51921;SDS011;37948;53.260;6.394;2022-11-11T13:17:50;23.23;;;16.70;;
51921;SDS011;37948;53.260;6.394;2022-11-11T13:22:41;21.23;;;16.00;;
51921;SDS011;37948;53.260;6.394;2022-11-11T13:25:12;23.13;;;16.88;;
51921;SDS011;37948;53.260;6.394;2022-11-11T13:27:44;28.80;;;18.15;;
51921;SDS011;37948;53.260;6.394;2022-11-11T13:38:04;27.77;;;17.77;;
51921;SDS011;37948;53.260;6.394;2022-11-11T13:42:59;30.42;;;18.42;;
51921;SDS011;37948;53.260;6.394;2022-11-11T13:45:29;29.52;;;18.50;;
51921;SDS011;37948;53.260;6.394;2022-11-11T13:48:02;29.55;;;19.27;;
51921;SDS011;37948;53.260;6.394;2022-11-11T13:50:35;26.10;;;18.45;;
51921;SDS011;37948;53.260;6.394;2022-11-11T13:53:03;31.77;;;19.00;;
51921;SDS011;37948;53.260;6.394;2022-11-11T13:55:41;27.83;;;18.85;;
51921;SDS011;37948;53.260;6.394;2022-11-11T13:58:22;27.27;;;17.70;;
51921;SDS011;37948;53.260;6.394;2022-11-11T14:01:01;31.00;;;17.63;;
51921;SDS011;37948;53.260;6.394;2022-11-11T14:03:57;27.92;;;17.33;;
51921;SDS011;37948;53.260;6.394;2022-11-11T14:13:49;29.95;;;17.80;;
51921;SDS011;37948;53.260;6.394;2022-11-11T14:24:22;23.85;;;18.00;;
51921;SDS011;37948;53.260;6.394;2022-11-11T14:26:58;31.05;;;18.80;;
51921;SDS011;37948;53.260;6.394;2022-11-11T14:29:29;24.75;;;16.88;;
51921;SDS011;37948;53.260;6.394;2022-11-11T14:37:55;27.15;;;17.95;;
51921;SDS011;37948;53.260;6.394;2022-11-11T14:40:44;24.75;;;17.38;;
51921;SDS011;37948;53.260;6.394;2022-11-11T14:46:00;28.80;;;18.30;;
51921;SDS011;37948;53.260;6.394;2022-11-11T14:54:03;27.92;;;16.90;;
51921;SDS011;37948;53.260;6.394;2022-11-11T14:56:30;28.25;;;16.75;;
51921;SDS011;37948;53.260;6.394;2022-11-11T14:58:58;30.92;;;17.13;;
51921;SDS011;37948;53.260;6.394;2022-11-11T15:01:30;24.30;;;17.08;;
51921;SDS011;37948;53.260;6.394;2022-11-11T15:03:59;26.92;;;16.95;;
51921;SDS011;37948;53.260;6.394;2022-11-11T15:06:29;25.42;;;17.38;;
51921;SDS011;37948;53.260;6.394;2022-11-11T15:11:58;23.88;;;17.60;;
51921;SDS011;37948;53.260;6.394;2022-11-11T15:19:46;29.02;;;17.77;;
51921;SDS011;37948;53.260;6.394;2022-11-11T15:39:23;25.60;;;17.83;;
51921;SDS011;37948;53.260;6.394;2022-11-11T15:41:51;26.20;;;17.42;;
51921;SDS011;37948;53.260;6.394;2022-11-11T15:44:19;27.58;;;18.27;;
51921;SDS011;37948;53.260;6.394;2022-11-11T15:46:46;24.40;;;17.50;;
51921;SDS011;37948;53.260;6.394;2022-11-11T15:52:00;29.95;;;18.05;;
51921;SDS011;37948;53.260;6.394;2022-11-11T15:54:26;27.05;;;17.75;;
51921;SDS011;37948;53.260;6.394;2022-11-11T15:56:51;29.00;;;18.35;;
51921;SDS011;37948;53.260;6.394;2022-11-11T15:59:23;25.88;;;17.77;;
51921;SDS011;37948;53.260;6.394;2022-11-11T16:01:54;27.05;;;17.50;;
51921;SDS011;37948;53.260;6.394;2022-11-11T16:04:21;24.33;;;16.95;;
51921;SDS011;37948;53.260;6.394;2022-11-11T16:06:48;23.50;;;17.42;;
51921;SDS011;37948;53.260;6.394;2022-11-11T16:09:20;22.33;;;15.90;;
51921;SDS011;37948;53.260;6.394;2022-11-11T16:11:49;27.92;;;16.85;;
51921;SDS011;37948;53.260;6.394;2022-11-11T16:14:30;23.73;;;17.40;;
51921;SDS011;37948;53.260;6.394;2022-11-11T16:17:05;22.92;;;15.52;;
51921;SDS011;37948;53.260;6.394;2022-11-11T16:24:50;29.42;;;17.52;;
51921;SDS011;37948;53.260;6.394;2022-11-11T16:27:17;23.85;;;17.90;;
51921;SDS011;37948;53.260;6.394;2022-11-11T16:29:46;28.35;;;17.08;;
51921;SDS011;37948;53.260;6.394;2022-11-11T16:34:52;24.67;;;17.63;;
51921;SDS011;37948;53.260;6.394;2022-11-11T16:37:18;23.55;;;17.80;;
51921;SDS011;37948;53.260;6.394;2022-11-11T16:39:45;25.77;;;17.48;;
51921;SDS011;37948;53.260;6.394;2022-11-11T16:42:24;26.40;;;19.08;;
51921;SDS011;37948;53.260;6.394;2022-11-11T16:45:01;24.85;;;17.75;;
51921;SDS011;37948;53.260;6.394;2022-11-11T16:52:52;29.52;;;19.40;;
51921;SDS011;37948;53.260;6.394;2022-11-11T16:55:43;28.35;;;18.42;;
51921;SDS011;37948;53.260;6.394;2022-11-11T16:58:11;22.15;;;17.00;;
51921;SDS011;37948;53.260;6.394;2022-11-11T17:00:42;29.73;;;18.30;;
51921;SDS011;37948;53.260;6.394;2022-11-11T17:05:49;27.25;;;19.58;;
51921;SDS011;37948;53.260;6.394;2022-11-11T17:08:27;26.42;;;17.42;;
51921;SDS011;37948;53.260;6.394;2022-11-11T17:10:53;26.05;;;17.38;;
51921;SDS011;37948;53.260;6.394;2022-11-11T17:13:18;25.20;;;16.88;;
51921;SDS011;37948;53.260;6.394;2022-11-11T17:15:44;28.90;;;18.65;;
51921;SDS011;37948;53.260;6.394;2022-11-11T17:18:09;26.25;;;18.02;;
51921;SDS011;37948;53.260;6.394;2022-11-11T17:20:38;25.38;;;18.58;;
51921;SDS011;37948;53.260;6.394;2022-11-11T17:23:04;29.85;;;20.13;;
51921;SDS011;37948;53.260;6.394;2022-11-11T17:25:32;29.15;;;19.88;;
51921;SDS011;37948;53.260;6.394;2022-11-11T17:27:58;31.30;;;19.38;;
51921;SDS011;37948;53.260;6.394;2022-11-11T17:30:24;36.15;;;23.75;;
51921;SDS011;37948;53.260;6.394;2022-11-11T17:32:49;42.95;;;27.05;;
51921;SDS011;37948;53.260;6.394;2022-11-11T17:35:15;36.00;;;26.67;;
51921;SDS011;37948;53.260;6.394;2022-11-11T17:37:41;33.95;;;22.92;;
51921;SDS011;37948;53.260;6.394;2022-11-11T17:40:07;30.23;;;20.70;;